Time;durP1;ratioP1;P1;durP2;ratioP2;P2;SDS_P1;SDS_P2;PMS_P1;PMS_P2;Temp;Humidity;BMP_temperature;BMP_pressure;BME280_temperature;BME280_humidity;BME280_pressure;Samples;Min_cycle;Max_cycle;Signal;HPM_P1;HPM_P2
2023/01/24 00:01:29;;;;;;;22.57;17.37;;;2.20;1.00;;;;;;6234020;28;20265;-55
2023/01/24 00:04:32;;;;;;;19.27;16.87;;;2.10;1.00;;;;;;6258124;28;20234;-54
2023/01/24 00:07:35;;;;;;;23.20;17.67;;;2.00;1.00;;;;;;6251750;28;20234;-55
2023/01/24 00:10:39;;;;;;;25.60;17.37;;;2.00;1.00;;;;;;6253648;28;20607;-55
2023/01/24 00:13:42;;;;;;;22.90;16.97;;;2.30;1.00;;;;;;6257464;28;20233;-57
2023/01/24 00:16:46;;;;;;;22.97;16.90;;;2.20;1.00;;;;;;6245584;28;20733;-55
2023/01/24 00:19:49;;;;;;;27.23;17.77;;;1.90;1.00;;;;;;6224120;28;20234;-56
2023/01/24 00:22:52;;;;;;;24.93;18.20;;;1.80;1.00;;;;;;6234040;28;20231;-55
2023/01/24 00:25:55;;;;;;;28.33;17.73;;;2.00;1.00;;;;;;6233413;28;20495;-54
2023/01/24 00:28:58;;;;;;;25.70;17.77;;;2.20;1.00;;;;;;6233296;28;20238;-57
2023/01/24 00:32:03;;;;;;;27.40;17.43;;;1.80;1.00;;;;;;6250715;28;20237;-56
2023/01/24 00:35:08;;;;;;;26.50;19.07;;;2.20;1.00;;;;;;6253220;28;20241;-55
2023/01/24 00:38:11;;;;;;;26.67;19.33;;;2.20;1.00;;;;;;6257861;28;20229;-57
2023/01/24 00:41:14;;;;;;;21.80;17.73;;;1.80;1.00;;;;;;6246617;28;20281;-56
2023/01/24 00:44:17;;;;;;;25.33;17.97;;;1.80;1.00;;;;;;6248677;28;20233;-54
2023/01/24 00:47:22;;;;;;;27.37;18.47;;;2.00;1.00;;;;;;6258153;28;20225;-55
2023/01/24 00:50:25;;;;;;;25.93;18.40;;;1.90;1.00;;;;;;6241531;28;20749;-55
2023/01/24 00:53:28;;;;;;;24.93;18.60;;;2.10;1.00;;;;;;6233252;28;20238;-55
2023/01/24 00:56:31;;;;;;;22.83;17.27;;;1.80;1.00;;;;;;6228855;28;20647;-54
2023/01/24 00:59:34;;;;;;;20.20;17.10;;;2.00;1.00;;;;;;6232803;28;20238;-56
2023/01/24 01:02:39;;;;;;;22.97;15.80;;;1.80;1.00;;;;;;6258539;28;20229;-55
2023/01/24 01:05:42;;;;;;;20.27;16.00;;;1.70;1.00;;;;;;6259519;28;20596;-56
2023/01/24 01:08:45;;;;;;;18.97;15.87;;;1.80;1.00;;;;;;6257422;28;20241;-54
2023/01/24 01:11:48;;;;;;;21.63;15.90;;;1.80;1.00;;;;;;6262857;28;20237;-55
2023/01/24 01:14:51;;;;;;;19.57;14.70;;;1.80;1.00;;;;;;6256219;28;20958;-57
2023/01/24 01:17:57;;;;;;;21.90;15.33;;;1.70;1.00;;;;;;6262469;28;20242;-55
2023/01/24 01:21:00;;;;;;;17.57;15.20;;;1.70;1.00;;;;;;6262124;28;20673;-55
2023/01/24 01:24:04;;;;;;;21.37;15.80;;;1.80;1.00;;;;;;6249660;28;20235;-55
2023/01/24 01:27:07;;;;;;;18.87;15.10;;;1.60;1.00;;;;;;6237090;28;20608;-55
2023/01/24 01:30:11;;;;;;;17.43;14.73;;;1.50;1.00;;;;;;6237373;28;20246;-54
2023/01/24 01:33:15;;;;;;;16.70;15.00;;;1.70;1.00;;;;;;6253568;28;20249;-54
2023/01/24 01:36:18;;;;;;;16.33;14.63;;;1.60;1.00;;;;;;6261689;28;20233;-54
2023/01/24 01:39:21;;;;;;;16.37;14.33;;;1.50;1.00;;;;;;6256169;28;20395;-54
2023/01/24 01:42:24;;;;;;;16.10;14.43;;;1.80;1.00;;;;;;6259885;28;20236;-54
2023/01/24 01:45:40;;;;;;;18.83;15.43;;;1.60;1.00;;;;;;6253292;28;20240;-54
2023/01/24 01:48:47;;;;;;;17.77;14.50;;;1.70;1.00;;;;;;6236320;28;20386;-56
2023/01/24 01:51:53;;;;;;;18.67;14.47;;;1.70;1.00;;;;;;6237178;28;20234;-56
2023/01/24 01:55:02;;;;;;;17.30;15.20;;;1.60;1.00;;;;;;6236300;28;20711;-56
2023/01/24 01:58:06;;;;;;;16.23;13.80;;;1.60;1.00;;;;;;6236560;28;20265;-54
2023/01/24 02:01:09;;;;;;;15.60;13.60;;;1.50;1.00;;;;;;6235659;28;20231;-55
2023/01/24 02:04:18;;;;;;;14.53;12.80;;;1.50;1.00;;;;;;6253813;28;20866;-55
2023/01/24 02:07:24;;;;;;;15.63;14.10;;;1.80;1.00;;;;;;6259346;28;20777;-55
2023/01/24 02:11:37;;;;;;;14.80;13.20;;;1.60;1.00;;;;;;6251017;28;20238;-55
2023/01/24 02:16:01;;;;;;;14.13;12.70;;;1.80;1.00;;;;;;6261229;28;20235;-54
2023/01/24 02:17:17;;;;;;;13.87;12.47;;;1.40;1.00;;;;;;6260223;28;20608;-56
2023/01/24 02:20:33;;;;;;;13.83;12.53;;;1.60;1.00;;;;;;6235646;28;20243;-55
2023/01/24 02:23:44;;;;;;;12.17;11.03;;;1.40;1.00;;;;;;6236026;28;20857;-55
2023/01/24 02:26:48;;;;;;;12.50;11.20;;;1.30;1.00;;;;;;6235618;28;20504;-56
2023/01/24 02:29:51;;;;;;;12.07;10.97;;;1.40;1.00;;;;;;6235554;28;20736;-56
2023/01/24 02:32:54;;;;;;;13.47;10.70;;;1.40;1.00;;;;;;6249268;28;20614;-55
2023/01/24 02:36:18;;;;;;;12.50;11.43;;;1.50;1.00;;;;;;6260458;28;20242;-55
2023/01/24 02:39:27;;;;;;;13.13;11.93;;;1.40;1.00;;;;;;6256265;28;20279;-55
2023/01/24 02:42:34;;;;;;;12.07;10.70;;;1.30;1.00;;;;;;6236695;28;20489;-55
2023/01/24 02:45:37;;;;;;;12.73;11.53;;;1.10;1.00;;;;;;6250367;28;20684;-56
2023/01/24 02:48:40;;;;;;;13.03;11.93;;;1.70;1.00;;;;;;6235713;28;20388;-54
2023/01/24 02:55:00;;;;;;;13.33;12.03;;;1.40;1.00;;;;;;6212517;28;20405;-58
2023/01/24 02:58:06;;;;;;;11.97;11.03;;;1.30;1.00;;;;;;6236038;28;20627;-56
2023/01/24 03:01:10;;;;;;;11.97;10.97;;;1.50;1.00;;;;;;6235002;28;20293;-55
2023/01/24 03:04:13;;;;;;;11.97;10.97;;;1.30;1.00;;;;;;6257687;28;20234;-55
2023/01/24 03:07:17;;;;;;;12.10;11.00;;;1.30;1.00;;;;;;6258002;28;20234;-55
2023/01/24 03:10:20;;;;;;;12.03;10.83;;;1.30;1.00;;;;;;6259002;28;20384;-53
2023/01/24 03:36:52;;;;;;;12.57;11.23;;;1.40;1.00;;;;;;6253788;28;20743;-55
2023/01/24 03:39:58;;;;;;;11.80;10.70;;;1.40;1.00;;;;;;6257873;28;20242;-55
2023/01/24 03:43:02;;;;;;;12.27;11.13;;;1.20;1.00;;;;;;6257192;28;20222;-56
2023/01/24 03:46:06;;;;;;;11.57;10.67;;;1.20;1.00;;;;;;6258555;28;20233;-55
2023/01/24 03:49:09;;;;;;;11.87;10.73;;;1.10;1.00;;;;;;6258306;28;20242;-54
2023/01/24 03:52:27;;;;;;;11.70;10.50;;;1.20;1.00;;;;;;6257610;28;20241;-54
2023/01/24 03:55:30;;;;;;;10.97;10.03;;;1.30;1.00;;;;;;6258415;28;20245;-53
2023/01/24 03:58:33;;;;;;;11.83;10.73;;;1.40;1.00;;;;;;6258718;28;20245;-56
2023/01/24 04:01:38;;;;;;;11.97;10.97;;;1.40;1.00;;;;;;6237978;28;20316;-55
2023/01/24 04:08:02;;;;;;;12.70;11.60;;;1.30;1.00;;;;;;6258437;28;20279;-55
2023/01/24 04:11:05;;;;;;;13.23;12.03;;;1.40;1.00;;;;;;6249844;28;20230;-54
2023/01/24 04:14:08;;;;;;;12.30;11.27;;;1.20;1.00;;;;;;6248139;28;20721;-55
2023/01/24 04:17:12;;;;;;;13.03;11.73;;;1.30;1.00;;;;;;6258589;28;20750;-56
2023/01/24 04:20:16;;;;;;;14.23;12.83;;;1.20;1.00;;;;;;6247710;28;20246;-54
2023/01/24 04:23:19;;;;;;;13.00;11.93;;;1.20;1.00;;;;;;6232948;28;20380;-54
2023/01/24 04:26:22;;;;;;;12.43;11.30;;;1.30;1.00;;;;;;6254976;28;20232;-55
2023/01/24 04:29:25;;;;;;;13.07;11.97;;;1.40;1.00;;;;;;6256811;28;20249;-54
2023/01/24 04:32:31;;;;;;;13.93;12.53;;;1.30;1.00;;;;;;6238197;28;20465;-56
2023/01/24 04:35:34;;;;;;;13.00;11.70;;;1.50;1.00;;;;;;6243633;28;20234;-54
2023/01/24 04:38:37;;;;;;;12.70;11.60;;;1.30;1.00;;;;;;6247522;28;20242;-55
2023/01/24 04:41:41;;;;;;;13.60;12.23;;;1.30;1.00;;;;;;6252886;28;20947;-54
2023/01/24 04:44:44;;;;;;;13.93;12.67;;;1.50;1.00;;;;;;6254630;28;20238;-55
2023/01/24 04:47:48;;;;;;;13.10;11.90;;;1.20;1.00;;;;;;6255276;28;20230;-54
2023/01/24 04:50:51;;;;;;;12.73;11.60;;;1.20;1.00;;;;;;6254204;28;20256;-55
2023/01/24 04:53:54;;;;;;;12.27;11.17;;;1.10;1.00;;;;;;6262922;28;20238;-53
2023/01/24 04:56:57;;;;;;;14.03;12.67;;;1.20;1.00;;;;;;6255909;28;20237;-56
2023/01/24 05:00:00;;;;;;;13.13;11.97;;;1.30;1.00;;;;;;6261637;28;20911;-54
2023/01/24 05:03:05;;;;;;;12.67;11.57;;;1.20;1.00;;;;;;6255217;28;20299;-55
2023/01/24 05:06:08;;;;;;;12.47;11.40;;;1.10;1.00;;;;;;6252498;28;20242;-56
2023/01/24 05:09:11;;;;;;;13.20;11.80;;;1.30;1.00;;;;;;6256324;28;20717;-54
2023/01/24 05:12:14;;;;;;;14.30;12.83;;;1.20;1.00;;;;;;6262147;28;20221;-55
2023/01/24 05:15:19;;;;;;;13.70;12.40;;;1.20;1.00;;;;;;6263183;28;20234;-54
2023/01/24 05:18:24;;;;;;;14.50;13.00;;;1.20;1.00;;;;;;6257269;28;20793;-55
2023/01/24 05:21:27;;;;;;;13.10;11.80;;;1.30;1.00;;;;;;6269774;28;20230;-56
2023/01/24 05:24:30;;;;;;;12.93;11.73;;;1.00;1.00;;;;;;6258310;28;20391;-54
2023/01/24 05:27:33;;;;;;;13.77;12.53;;;1.30;1.00;;;;;;6256804;28;20226;-54
2023/01/24 05:30:36;;;;;;;13.47;11.90;;;1.20;1.00;;;;;;6256274;28;20831;-54
2023/01/24 05:33:41;;;;;;;14.03;12.70;;;1.40;1.00;;;;;;6257031;28;20237;-57
2023/01/24 05:36:44;;;;;;;14.13;12.63;;;1.40;1.00;;;;;;6260399;28;20242;-55
2023/01/24 05:39:47;;;;;;;14.20;13.00;;;1.20;1.00;;;;;;6258248;28;20262;-54
2023/01/24 05:42:50;;;;;;;13.90;12.50;;;1.30;1.00;;;;;;6255293;28;20233;-55
2023/01/24 05:45:58;;;;;;;14.77;13.30;;;1.20;1.00;;;;;;6255428;28;20806;-54
2023/01/24 05:49:02;;;;;;;15.20;13.10;;;1.30;1.00;;;;;;6262286;28;20257;-54
2023/01/24 05:52:05;;;;;;;14.50;13.00;;;1.20;1.00;;;;;;6259553;28;20628;-55
2023/01/24 05:55:09;;;;;;;14.37;12.97;;;1.20;1.00;;;;;;6262401;28;20237;-55
2023/01/24 05:58:12;;;;;;;13.87;12.43;;;1.00;1.00;;;;;;6249998;28;20617;-55
2023/01/24 06:01:17;;;;;;;14.60;13.20;;;1.20;1.00;;;;;;6259684;28;20542;-56
2023/01/24 06:04:22;;;;;;;14.13;12.73;;;1.20;1.00;;;;;;6251089;28;20610;-55
2023/01/24 06:07:25;;;;;;;14.57;12.17;;;1.10;1.00;;;;;;6249152;28;20238;-55
2023/01/24 06:10:28;;;;;;;15.80;12.97;;;1.20;1.00;;;;;;6263141;28;20236;-56
2023/01/24 06:13:31;;;;;;;16.77;12.23;;;1.10;1.00;;;;;;6253590;28;20238;-54
2023/01/24 06:16:34;;;;;;;14.17;12.07;;;1.20;1.00;;;;;;6265097;28;20287;-56
2023/01/24 06:19:39;;;;;;;15.97;12.77;;;1.20;1.00;;;;;;6260422;28;20238;-55
2023/01/24 06:22:51;;;;;;;14.93;12.57;;;1.10;1.00;;;;;;6258987;28;20238;-56
2023/01/24 06:25:54;;;;;;;15.23;13.13;;;1.20;1.00;;;;;;6261937;28;20237;-54
2023/01/24 06:28:58;;;;;;;20.87;13.70;;;1.20;1.00;;;;;;6259013;28;20233;-53
2023/01/24 06:32:16;;;;;;;20.70;14.37;;;1.10;1.00;;;;;;6260179;28;20230;-54
2023/01/24 06:35:29;;;;;;;20.10;14.10;;;1.40;1.00;;;;;;6253621;28;20237;-54
2023/01/24 06:38:33;;;;;;;20.53;13.43;;;1.20;1.00;;;;;;6255487;28;20242;-54
2023/01/24 06:41:37;;;;;;;18.90;14.67;;;1.10;1.00;;;;;;6256095;28;20252;-55
2023/01/24 06:44:40;;;;;;;18.93;13.93;;;1.40;1.00;;;;;;6252541;28;20241;-54
2023/01/24 06:47:43;;;;;;;18.57;13.93;;;1.10;1.00;;;;;;6253778;28;20746;-54
2023/01/24 06:50:48;;;;;;;20.17;14.37;;;1.10;1.00;;;;;;6254667;28;20485;-56
2023/01/24 06:53:51;;;;;;;22.10;14.87;;;1.00;1.00;;;;;;6254977;28;20230;-56
2023/01/24 06:56:54;;;;;;;19.70;14.67;;;1.10;1.00;;;;;;6259840;28;20697;-55
2023/01/24 06:59:57;;;;;;;21.17;14.83;;;1.10;1.00;;;;;;6265321;28;20252;-55
2023/01/24 07:03:01;;;;;;;19.23;14.00;;;1.20;1.00;;;;;;6261279;28;20268;-56
2023/01/24 07:06:05;;;;;;;22.43;15.13;;;1.10;1.00;;;;;;6258750;28;20363;-55
2023/01/24 07:09:09;;;;;;;24.73;15.97;;;1.10;1.00;;;;;;6250301;28;20308;-55
2023/01/24 07:12:12;;;;;;;26.07;15.43;;;1.30;1.00;;;;;;6246820;28;20234;-54
2023/01/24 07:15:15;;;;;;;26.77;17.17;;;1.10;1.00;;;;;;6245229;28;20734;-56
2023/01/24 07:18:19;;;;;;;28.70;17.00;;;1.30;1.00;;;;;;6246530;28;20241;-56
2023/01/24 07:21:24;;;;;;;28.37;17.03;;;1.10;1.00;;;;;;6258294;28;20249;-54
2023/01/24 07:24:29;;;;;;;29.63;16.77;;;1.20;1.00;;;;;;6259528;28;20762;-55
2023/01/24 07:27:33;;;;;;;30.70;17.30;;;1.20;1.00;;;;;;6260095;28;20806;-54
2023/01/24 07:30:36;;;;;;;28.00;17.20;;;1.20;1.00;;;;;;6261421;28;20784;-56
2023/01/24 07:33:39;;;;;;;37.47;18.27;;;1.20;1.00;;;;;;6249772;28;20242;-55
2023/01/24 07:36:49;;;;;;;36.73;17.87;;;1.10;1.00;;;;;;6253722;28;20313;-56
2023/01/24 07:39:52;;;;;;;33.50;17.67;;;1.20;1.00;;;;;;6257352;28;20432;-56
2023/01/24 07:42:55;;;;;;;29.53;17.50;;;1.20;1.00;;;;;;6251514;28;20237;-55
2023/01/24 07:45:58;;;;;;;30.53;18.17;;;1.40;1.00;;;;;;6257608;28;20249;-55
2023/01/24 07:49:02;;;;;;;36.00;18.30;;;1.20;1.00;;;;;;6257808;28;20250;-55
2023/01/24 07:52:07;;;;;;;41.67;18.00;;;1.20;1.00;;;;;;6252605;28;20237;-54
2023/01/24 07:55:10;;;;;;;34.20;18.10;;;1.40;1.00;;;;;;6257264;28;20241;-55
2023/01/24 07:58:14;;;;;;;43.77;20.40;;;1.30;1.00;;;;;;6257957;28;20242;-55
2023/01/24 08:01:18;;;;;;;38.77;18.97;;;1.10;1.00;;;;;;6251959;28;20230;-56
2023/01/24 08:04:21;;;;;;;40.60;18.90;;;1.40;1.00;;;;;;6255266;28;20599;-55
2023/01/24 08:07:26;;;;;;;39.20;18.33;;;1.30;1.00;;;;;;6254874;28;20309;-56
2023/01/24 08:10:29;;;;;;;35.57;18.23;;;1.30;1.00;;;;;;6256164;28;20265;-54
2023/01/24 08:13:33;;;;;;;38.50;19.20;;;1.50;1.00;;;;;;6257346;28;20234;-54
2023/01/24 08:16:36;;;;;;;42.83;20.07;;;1.50;1.00;;;;;;6250432;28;20222;-54
2023/01/24 08:19:39;;;;;;;41.27;19.30;;;1.40;1.00;;;;;;6263486;28;20336;-53
2023/01/24 08:22:59;;;;;;;45.63;21.77;;;1.40;1.00;;;;;;6257909;28;20283;-55
2023/01/24 08:26:05;;;;;;;50.47;22.33;;;1.60;1.00;;;;;;6260997;28;20231;-54
2023/01/24 08:29:08;;;;;;;42.93;20.67;;;1.50;1.00;;;;;;6253872;28;20317;-55
2023/01/24 08:32:11;;;;;;;45.00;21.77;;;1.60;1.00;;;;;;6252532;28;20282;-55
2023/01/24 08:35:15;;;;;;;53.30;21.20;;;1.60;1.00;;;;;;6263122;28;20368;-54
2023/01/24 08:38:19;;;;;;;49.43;23.27;;;1.60;1.00;;;;;;6255652;28;20242;-57
2023/01/24 08:41:22;;;;;;;59.40;24.67;;;1.80;1.00;;;;;;6257095;28;20230;-56
2023/01/24 08:44:25;;;;;;;59.47;24.90;;;1.90;1.00;;;;;;6250322;28;20233;-55
2023/01/24 08:47:28;;;;;;;59.07;25.63;;;1.80;1.00;;;;;;6253133;28;20238;-55
2023/01/24 08:50:31;;;;;;;53.33;23.50;;;1.70;1.00;;;;;;6260574;28;20594;-55
2023/01/24 08:53:36;;;;;;;61.30;25.37;;;1.60;1.00;;;;;;6258748;28;20238;-54
2023/01/24 08:56:39;;;;;;;67.23;26.07;;;1.70;1.00;;;;;;6250112;28;20251;-56
2023/01/24 08:59:42;;;;;;;62.33;25.33;;;2.00;1.00;;;;;;6252464;28;20612;-56
2023/01/24 09:02:45;;;;;;;62.63;25.77;;;1.80;1.00;;;;;;6259542;28;20387;-56
2023/01/24 09:05:48;;;;;;;64.57;25.63;;;1.80;1.00;;;;;;6251156;28;20234;-54
2023/01/24 09:08:54;;;;;;;67.67;25.83;;;1.70;1.00;;;;;;6256943;28;20238;-55
2023/01/24 09:11:57;;;;;;;57.47;24.83;;;1.80;1.00;;;;;;6258152;28;20610;-54
2023/01/24 09:15:01;;;;;;;62.70;24.67;;;1.80;1.00;;;;;;6255488;28;20226;-56
2023/01/24 09:18:04;;;;;;;61.77;26.50;;;1.80;1.00;;;;;;6254374;28;20796;-53
2023/01/24 09:21:07;;;;;;;63.27;25.80;;;1.80;1.00;;;;;;6260172;28;20252;-55
2023/01/24 09:24:11;;;;;;;63.50;26.20;;;1.90;1.00;;;;;;6250734;28;20321;-55
2023/01/24 09:27:14;;;;;;;58.90;26.30;;;2.20;1.00;;;;;;6260812;28;20248;-55
2023/01/24 09:30:18;;;;;;;66.13;26.97;;;2.10;1.00;;;;;;6255959;28;20242;-53
2023/01/24 09:33:23;;;;;;;65.93;27.27;;;2.00;1.00;;;;;;6256966;28;20265;-56
2023/01/24 09:36:27;;;;;;;63.77;26.43;;;2.00;1.00;;;;;;6268119;28;20230;-56
2023/01/24 09:39:32;;;;;;;55.80;24.83;;;2.00;1.00;;;;;;6259166;28;20236;-54
2023/01/24 09:42:40;;;;;;;60.27;24.80;;;2.20;1.00;;;;;;6256486;28;20338;-55
2023/01/24 09:45:52;;;;;;;68.50;26.77;;;2.30;1.00;;;;;;6257119;28;20265;-56
2023/01/24 09:49:03;;;;;;;59.23;25.83;;;2.40;1.00;;;;;;6260002;28;20284;-56
2023/01/24 09:52:11;;;;;;;62.40;26.20;;;2.40;1.00;;;;;;6254189;28;20234;-54
2023/01/24 09:55:23;;;;;;;67.63;25.60;;;2.50;1.00;;;;;;6255595;28;20249;-54
2023/01/24 09:58:31;;;;;;;63.83;26.63;;;2.30;1.00;;;;;;6267497;28;20242;-56
2023/01/24 10:01:34;;;;;;;61.07;25.90;;;2.40;1.00;;;;;;6257935;28;20472;-54
2023/01/24 10:04:38;;;;;;;66.40;27.73;;;2.50;1.00;;;;;;6242100;28;20270;-56
2023/01/24 10:08:18;;;;;;;59.00;27.03;;;2.50;1.00;;;;;;6257801;28;20256;-55
2023/01/24 10:11:30;;;;;;;60.90;27.53;;;2.40;1.00;;;;;;6258430;28;20718;-54
2023/01/24 10:14:46;;;;;;;69.27;28.73;;;2.60;1.00;;;;;;6258925;28;20226;-56
2023/01/24 10:18:07;;;;;;;62.53;27.57;;;2.30;1.00;;;;;;6254972;28;20245;-55
2023/01/24 10:21:31;;;;;;;69.90;26.77;;;2.50;1.00;;;;;;6256858;28;20233;-54
2023/01/24 10:24:39;;;;;;;58.93;26.83;;;2.70;1.00;;;;;;6257732;28;20234;-54
2023/01/24 10:27:47;;;;;;;64.27;26.83;;;2.60;1.00;;;;;;6257804;28;20825;-54
2023/01/24 10:30:56;;;;;;;65.97;26.07;;;2.50;1.00;;;;;;6260898;28;20242;-54
2023/01/24 10:34:08;;;;;;;53.20;25.40;;;2.90;1.00;;;;;;6258357;28;20226;-55
2023/01/24 10:37:20;;;;;;;58.43;25.67;;;2.90;1.00;;;;;;6254650;28;20230;-56
2023/01/24 10:40:25;;;;;;;56.13;26.53;;;2.90;1.00;;;;;;6259937;28;20237;-54
2023/01/24 10:43:33;;;;;;;58.97;25.43;;;3.10;1.00;;;;;;6258587;28;20424;-55
2023/01/24 10:46:56;;;;;;;48.27;25.63;;;3.10;1.00;;;;;;6257479;28;20265;-55
2023/01/24 10:50:00;;;;;;;58.30;25.03;;;3.10;1.00;;;;;;6258404;28;20240;-54
2023/01/24 10:53:14;;;;;;;54.43;25.47;;;3.20;1.00;;;;;;6265132;28;20241;-55
2023/01/24 10:56:29;;;;;;;54.90;26.13;;;3.20;1.00;;;;;;6259200;28;20313;-58
2023/01/24 10:59:35;;;;;;;63.20;25.87;;;3.30;1.00;;;;;;6256588;28;20241;-54
2023/01/24 11:02:38;;;;;;;56.13;25.73;;;3.00;1.00;;;;;;6254612;28;20765;-55
2023/01/24 11:05:46;;;;;;;54.67;26.70;;;3.00;1.00;;;;;;6260365;28;20255;-54
2023/01/24 11:08:55;;;;;;;52.63;25.47;;;3.00;1.00;;;;;;6254456;28;20730;-55
2023/01/24 11:11:59;;;;;;;55.80;26.57;;;3.10;1.00;;;;;;6254318;28;20234;-54
2023/01/24 11:15:05;;;;;;;51.50;25.00;;;3.10;1.00;;;;;;6256485;28;20613;-54
2023/01/24 11:18:18;;;;;;;50.53;24.47;;;3.20;1.00;;;;;;6251637;28;20433;-54
2023/01/24 11:21:21;;;;;;;54.73;24.73;;;3.20;1.00;;;;;;6256829;28;20248;-54
2023/01/24 11:24:25;;;;;;;55.17;24.93;;;3.30;1.00;;;;;;6259084;28;20584;-54
2023/01/24 11:27:28;;;;;;;52.90;24.23;;;3.10;1.00;;;;;;6261091;28;20302;-55
2023/01/24 11:30:38;;;;;;;44.90;23.30;;;3.10;1.00;;;;;;6257435;28;20507;-54
2023/01/24 11:34:01;;;;;;;58.97;27.03;;;3.10;1.00;;;;;;6251239;28;20230;-54
2023/01/24 11:37:15;;;;;;;52.17;25.43;;;3.30;1.00;;;;;;6256560;28;20317;-54
2023/01/24 11:40:34;;;;;;;60.67;24.50;;;3.30;1.00;;;;;;6262969;28;20260;-55
2023/01/24 11:43:53;;;;;;;45.40;22.47;;;3.30;1.00;;;;;;6244598;28;20227;-55
2023/01/24 11:47:06;;;;;;;35.70;21.53;;;3.20;1.00;;;;;;6254540;28;20236;-54
2023/01/24 11:50:29;;;;;;;48.63;26.73;;;3.50;1.00;;;;;;6258412;28;20315;-55
2023/01/24 11:53:57;;;;;;;42.40;22.20;;;3.30;1.00;;;;;;6251890;28;20238;-54
2023/01/24 11:57:03;;;;;;;41.43;22.17;;;3.20;1.00;;;;;;6257601;28;20230;-55
2023/01/24 12:00:24;;;;;;;35.60;21.77;;;3.20;1.00;;;;;;6258095;28;20237;-54
2023/01/24 12:03:58;;;;;;;37.27;21.67;;;3.20;1.00;;;;;;6259635;28;20318;-54
2023/01/24 12:07:06;;;;;;;37.23;21.57;;;3.00;1.00;;;;;;6250329;28;20699;-55
2023/01/24 12:10:23;;;;;;;38.00;20.73;;;3.10;1.00;;;;;;6264491;28;20345;-56
2023/01/24 12:13:36;;;;;;;38.57;22.37;;;3.20;1.00;;;;;;6255563;28;20226;-55
2023/01/24 12:16:53;;;;;;;49.07;22.77;;;3.30;1.00;;;;;;6251984;28;20234;-55
2023/01/24 12:20:13;;;;;;;43.17;20.90;;;3.50;1.00;;;;;;6252206;28;20230;-55
2023/01/24 12:23:41;;;;;;;39.40;21.77;;;3.20;1.00;;;;;;6255429;28;20234;-57
2023/01/24 12:26:47;;;;;;;37.10;21.80;;;3.30;1.00;;;;;;6255864;28;20238;-55
2023/01/24 12:29:58;;;;;;;37.33;21.03;;;3.10;1.00;;;;;;6249298;28;20358;-55
2023/01/24 12:33:07;;;;;;;35.27;20.37;;;3.10;1.00;;;;;;6257434;28;20234;-55
2023/01/24 12:36:17;;;;;;;36.47;21.27;;;3.20;1.00;;;;;;6248107;28;20727;-54
2023/01/24 12:39:22;;;;;;;35.13;21.30;;;3.30;1.00;;;;;;6260011;28;20477;-55
2023/01/24 12:42:37;;;;;;;36.60;20.90;;;3.10;1.00;;;;;;6253777;28;20484;-55
2023/01/24 12:45:45;;;;;;;37.00;20.83;;;3.10;1.00;;;;;;6242640;28;20261;-55
2023/01/24 12:48:53;;;;;;;39.53;20.10;;;3.20;1.00;;;;;;6258669;28;20246;-56
2023/01/24 12:52:06;;;;;;;35.10;21.03;;;3.40;1.00;;;;;;6254644;28;20376;-56
2023/01/24 12:55:14;;;;;;;35.60;20.03;;;3.30;1.00;;;;;;6262453;28;20242;-55
2023/01/24 12:58:23;;;;;;;33.07;21.67;;;3.10;1.00;;;;;;6257638;28;20812;-56
2023/01/24 13:01:38;;;;;;;35.13;19.90;;;3.10;1.00;;;;;;6258680;28;20234;-56
2023/01/24 13:04:49;;;;;;;36.57;20.60;;;3.10;1.00;;;;;;6267196;28;20253;-56
2023/01/24 13:08:12;;;;;;;28.13;19.20;;;3.20;1.00;;;;;;6253541;28;20290;-54
2023/01/24 13:11:21;;;;;;;36.27;21.00;;;2.90;1.00;;;;;;6257129;28;20230;-56
2023/01/24 13:14:27;;;;;;;34.13;20.23;;;3.20;1.00;;;;;;6255292;28;20388;-55
2023/01/24 13:18:00;;;;;;;32.87;21.23;;;3.20;1.00;;;;;;6259540;28;20238;-56
2023/01/24 13:21:11;;;;;;;40.87;22.37;;;3.20;1.00;;;;;;6250348;28;20253;-55
2023/01/24 13:24:30;;;;;;;38.77;22.10;;;3.40;1.00;;;;;;6259537;28;20231;-54
2023/01/24 13:27:41;;;;;;;35.53;20.27;;;3.40;1.00;;;;;;6261950;28;20230;-54
2023/01/24 13:30:50;;;;;;;33.53;19.13;;;3.30;1.00;;;;;;6252247;28;20629;-54
2023/01/24 13:33:56;;;;;;;39.00;19.83;;;3.30;1.00;;;;;;6253602;28;20703;-56
2023/01/24 13:37:01;;;;;;;39.27;21.80;;;3.40;1.00;;;;;;6253858;28;20255;-55
2023/01/24 13:40:19;;;;;;;30.07;20.50;;;3.30;1.00;;;;;;6265540;28;20242;-56
2023/01/24 13:43:57;;;;;;;43.13;21.03;;;3.40;1.00;;;;;;6255939;28;20707;-55
2023/01/24 13:47:02;;;;;;;32.63;20.50;;;3.10;1.00;;;;;;6254314;28;20236;-56
2023/01/24 13:50:20;;;;;;;36.33;20.47;;;3.30;1.00;;;;;;6249068;28;20244;-55
2023/01/24 13:53:58;;;;;;;38.40;22.40;;;3.30;1.00;;;;;;6253908;28;20233;-54
2023/01/24 13:57:25;;;;;;;44.77;21.37;;;3.40;1.00;;;;;;6257928;28;20241;-56
2023/01/24 14:00:28;;;;;;;36.30;19.97;;;2.90;1.00;;;;;;6257302;28;20700;-55
2023/01/24 14:03:34;;;;;;;34.63;20.20;;;2.90;1.00;;;;;;6265971;28;20266;-54
2023/01/24 14:06:43;;;;;;;34.50;19.70;;;3.00;1.00;;;;;;6260291;28;20234;-54
2023/01/24 14:09:47;;;;;;;35.93;20.10;;;2.90;1.00;;;;;;6259345;28;20297;-54
2023/01/24 14:12:55;;;;;;;32.17;18.83;;;3.20;1.00;;;;;;6255951;28;20227;-56
2023/01/24 14:15:58;;;;;;;33.50;19.33;;;3.10;1.00;;;;;;6259010;28;20229;-54
2023/01/24 14:19:13;;;;;;;36.00;19.93;;;3.20;1.00;;;;;;6262914;28;20754;-54
2023/01/24 14:22:24;;;;;;;37.40;19.57;;;3.00;1.00;;;;;;6256971;28;20316;-54
2023/01/24 14:25:40;;;;;;;34.47;20.97;;;3.00;1.00;;;;;;6263314;28;20246;-55
2023/01/24 14:28:51;;;;;;;34.07;18.97;;;3.20;1.00;;;;;;6260966;28;20649;-56
2023/01/24 14:32:00;;;;;;;33.03;18.77;;;3.00;1.00;;;;;;6249213;28;20249;-55
2023/01/24 14:35:19;;;;;;;33.83;19.63;;;3.10;1.00;;;;;;6256223;28;20641;-55
2023/01/24 14:38:22;;;;;;;38.17;20.50;;;3.10;1.00;;;;;;6253126;28;20729;-55
2023/01/24 14:41:26;;;;;;;35.33;21.20;;;3.00;1.00;;;;;;6258629;28;20249;-54
2023/01/24 14:44:33;;;;;;;30.80;18.77;;;3.00;1.00;;;;;;6250329;28;20803;-55
2023/01/24 14:47:36;;;;;;;38.80;21.40;;;2.90;1.00;;;;;;6246378;28;20265;-56
2023/01/24 14:50:39;;;;;;;39.13;20.17;;;3.10;1.00;;;;;;6255226;28;20596;-55
2023/01/24 14:53:47;;;;;;;36.87;20.20;;;2.90;1.00;;;;;;6260184;28;20484;-54
2023/01/24 14:56:51;;;;;;;39.63;21.17;;;2.90;1.00;;;;;;6254979;28;20743;-55
2023/01/24 15:00:08;;;;;;;38.83;20.03;;;3.00;1.00;;;;;;6251458;28;20248;-54
2023/01/24 15:03:18;;;;;;;38.50;20.37;;;3.10;1.00;;;;;;6261697;28;20233;-54
2023/01/24 15:06:22;;;;;;;36.30;20.10;;;2.90;1.00;;;;;;6255834;28;20241;-54
2023/01/24 15:09:25;;;;;;;35.73;21.17;;;3.00;1.00;;;;;;6253230;28;20644;-55
2023/01/24 15:12:32;;;;;;;30.93;19.73;;;2.90;1.00;;;;;;6251948;28;20260;-54
2023/01/24 15:15:39;;;;;;;40.90;22.53;;;2.70;1.00;;;;;;6258253;28;20230;-54
2023/01/24 15:18:45;;;;;;;43.07;20.60;;;2.70;1.00;;;;;;6239684;28;20387;-56
2023/01/24 15:21:50;;;;;;;35.43;20.47;;;2.50;1.00;;;;;;6258699;28;20230;-53
2023/01/24 15:24:55;;;;;;;38.37;20.83;;;2.70;1.00;;;;;;6252816;28;20241;-55
2023/01/24 15:28:10;;;;;;;40.47;20.57;;;2.70;1.00;;;;;;6258170;28;20252;-56
2023/01/24 15:31:21;;;;;;;37.73;21.20;;;2.50;1.00;;;;;;6258157;28;20476;-54
2023/01/24 15:34:24;;;;;;;39.67;21.40;;;2.50;1.00;;;;;;6265707;28;20241;-55
2023/01/24 15:37:27;;;;;;;39.20;20.53;;;2.70;1.00;;;;;;6259899;28;20734;-54
2023/01/24 15:40:31;;;;;;;38.57;21.50;;;2.60;1.00;;;;;;6248118;28;20824;-61
2023/01/24 15:43:49;;;;;;;34.40;20.17;;;2.40;1.00;;;;;;6259776;28;20465;-55
2023/01/24 15:53:49;;;;;;;37.97;21.40;;;2.80;1.00;;;;;;6255724;28;20234;-54
2023/01/24 15:56:52;;;;;;;38.13;20.57;;;2.80;1.00;;;;;;6256623;28;20272;-56
2023/01/24 16:00:22;;;;;;;39.90;20.90;;;2.80;1.00;;;;;;6251353;28;20244;-55
2023/01/24 16:03:26;;;;;;;34.00;20.70;;;2.60;1.00;;;;;;6256678;28;20476;-56
2023/01/24 16:06:29;;;;;;;34.90;19.83;;;2.70;1.00;;;;;;6253391;28;20425;-56
2023/01/24 16:09:33;;;;;;;34.07;19.90;;;2.50;1.00;;;;;;6265921;28;20241;-54
2023/01/24 16:12:37;;;;;;;30.87;18.43;;;2.70;1.00;;;;;;6255173;28;20340;-55
2023/01/24 16:15:40;;;;;;;33.43;20.20;;;2.40;1.00;;;;;;6239254;28;20239;-55
2023/01/24 16:18:44;;;;;;;32.90;19.77;;;2.40;1.00;;;;;;6242671;28;20862;-56
2023/01/24 16:21:48;;;;;;;42.83;21.47;;;2.70;1.00;;;;;;6255145;28;20443;-55
2023/01/24 16:24:51;;;;;;;38.97;20.90;;;2.70;1.00;;;;;;6255347;28;20241;-53
2023/01/24 16:27:55;;;;;;;34.03;19.20;;;2.60;1.00;;;;;;6245153;28;20237;-55
2023/01/24 16:31:02;;;;;;;38.47;20.90;;;2.50;1.00;;;;;;6270000;28;20597;-54
2023/01/24 16:34:07;;;;;;;38.00;20.13;;;2.60;1.00;;;;;;6269399;28;20878;-55
2023/01/24 16:37:10;;;;;;;29.97;20.30;;;2.50;1.00;;;;;;6251667;28;20230;-54
2023/01/24 16:40:15;;;;;;;34.13;20.37;;;2.50;1.00;;;;;;6252659;28;20237;-57
2023/01/24 16:43:21;;;;;;;34.73;19.47;;;2.60;1.00;;;;;;6250226;28;20230;-55
2023/01/24 16:46:24;;;;;;;31.00;18.17;;;2.40;1.00;;;;;;6248354;28;20264;-54
2023/01/24 16:49:29;;;;;;;36.57;20.27;;;2.30;1.00;;;;;;6255593;28;20238;-55
2023/01/24 16:52:32;;;;;;;34.30;20.93;;;2.50;1.00;;;;;;6257087;28;20702;-55